sensor_id;sensor_type;location;lat;lon;timestamp;temperature;humidity
31765;DHT22;18338;53.240;8.798;2023-07-13T00:01:48;14.50;99.90
31765;DHT22;18338;53.240;8.798;2023-07-13T00:04:18;14.50;99.90
31765;DHT22;18338;53.240;8.798;2023-07-13T00:06:46;14.50;99.90
31765;DHT22;18338;53.240;8.798;2023-07-13T00:09:15;14.50;99.90
31765;DHT22;18338;53.240;8.798;2023-07-13T00:11:45;14.50;99.90
31765;DHT22;18338;53.240;8.798;2023-07-13T00:14:14;14.50;99.90
31765;DHT22;18338;53.240;8.798;2023-07-13T00:16:42;14.50;99.90
31765;DHT22;18338;53.240;8.798;2023-07-13T00:19:13;14.50;99.90
31765;DHT22;18338;53.240;8.798;2023-07-13T00:21:40;14.50;99.90
31765;DHT22;18338;53.240;8.798;2023-07-13T00:24:10;14.50;99.90
31765;DHT22;18338;53.240;8.798;2023-07-13T00:26:39;14.50;99.90
31765;DHT22;18338;53.240;8.798;2023-07-13T00:29:06;14.50;99.90
31765;DHT22;18338;53.240;8.798;2023-07-13T00:31:35;14.50;99.90
31765;DHT22;18338;53.240;8.798;2023-07-13T00:34:03;14.40;99.90
31765;DHT22;18338;53.240;8.798;2023-07-13T00:36:31;14.40;99.90
31765;DHT22;18338;53.240;8.798;2023-07-13T00:38:57;14.30;99.90
31765;DHT22;18338;53.240;8.798;2023-07-13T00:41:24;14.30;99.90
31765;DHT22;18338;53.240;8.798;2023-07-13T00:43:51;14.40;99.90
31765;DHT22;18338;53.240;8.798;2023-07-13T00:46:30;14.40;99.90
31765;DHT22;18338;53.240;8.798;2023-07-13T00:49:01;14.30;99.90
31765;DHT22;18338;53.240;8.798;2023-07-13T00:51:36;14.30;99.90
31765;DHT22;18338;53.240;8.798;2023-07-13T00:54:06;14.30;99.90
31765;DHT22;18338;53.240;8.798;2023-07-13T00:56:34;14.20;99.90
31765;DHT22;18338;53.240;8.798;2023-07-13T00:59:03;14.20;99.90
31765;DHT22;18338;53.240;8.798;2023-07-13T01:01:32;14.20;99.90
31765;DHT22;18338;53.240;8.798;2023-07-13T01:03:59;14.10;99.90
31765;DHT22;18338;53.240;8.798;2023-07-13T01:06:26;14.10;99.90
31765;DHT22;18338;53.240;8.798;2023-07-13T01:08:53;14.10;99.90
31765;DHT22;18338;53.240;8.798;2023-07-13T01:11:21;14.10;99.90
31765;DHT22;18338;53.240;8.798;2023-07-13T01:13:49;14.10;99.90
31765;DHT22;18338;53.240;8.798;2023-07-13T01:16:27;14.00;99.90
31765;DHT22;18338;53.240;8.798;2023-07-13T01:18:56;14.10;99.90
31765;DHT22;18338;53.240;8.798;2023-07-13T01:21:27;14.10;99.90
31765;DHT22;18338;53.240;8.798;2023-07-13T01:23:55;14.10;99.90
31765;DHT22;18338;53.240;8.798;2023-07-13T01:26:22;14.00;99.90
31765;DHT22;18338;53.240;8.798;2023-07-13T01:28:49;14.00;99.90
31765;DHT22;18338;53.240;8.798;2023-07-13T01:31:16;14.00;99.90
31765;DHT22;18338;53.240;8.798;2023-07-13T01:33:42;14.00;99.90
31765;DHT22;18338;53.240;8.798;2023-07-13T01:36:11;14.00;99.90
31765;DHT22;18338;53.240;8.798;2023-07-13T01:38:38;14.00;99.90
31765;DHT22;18338;53.240;8.798;2023-07-13T01:41:04;14.00;99.90
31765;DHT22;18338;53.240;8.798;2023-07-13T01:43:31;13.90;99.90
31765;DHT22;18338;53.240;8.798;2023-07-13T01:45:59;13.90;99.90
31765;DHT22;18338;53.240;8.798;2023-07-13T01:48:45;13.90;99.90
31765;DHT22;18338;53.240;8.798;2023-07-13T01:51:12;13.90;99.90
31765;DHT22;18338;53.240;8.798;2023-07-13T01:53:39;13.90;99.90
31765;DHT22;18338;53.240;8.798;2023-07-13T01:56:06;13.90;99.90
31765;DHT22;18338;53.240;8.798;2023-07-13T01:58:33;13.80;99.90
31765;DHT22;18338;53.240;8.798;2023-07-13T02:01:00;13.80;99.90
31765;DHT22;18338;53.240;8.798;2023-07-13T02:03:26;13.80;99.90
31765;DHT22;18338;53.240;8.798;2023-07-13T02:05:53;13.70;99.90
31765;DHT22;18338;53.240;8.798;2023-07-13T02:08:20;13.70;99.90
31765;DHT22;18338;53.240;8.798;2023-07-13T02:10:46;13.90;99.90
31765;DHT22;18338;53.240;8.798;2023-07-13T02:13:13;13.90;99.90
31765;DHT22;18338;53.240;8.798;2023-07-13T02:15:40;13.90;99.90
31765;DHT22;18338;53.240;8.798;2023-07-13T02:18:10;13.90;99.90
31765;DHT22;18338;53.240;8.798;2023-07-13T02:20:36;13.90;99.90
31765;DHT22;18338;53.240;8.798;2023-07-13T02:23:03;13.90;99.90
31765;DHT22;18338;53.240;8.798;2023-07-13T02:25:34;13.90;99.90
31765;DHT22;18338;53.240;8.798;2023-07-13T02:28:01;13.90;99.90
31765;DHT22;18338;53.240;8.798;2023-07-13T02:30:28;13.80;99.90
31765;DHT22;18338;53.240;8.798;2023-07-13T02:32:57;13.90;99.90
31765;DHT22;18338;53.240;8.798;2023-07-13T02:35:23;13.90;99.90
31765;DHT22;18338;53.240;8.798;2023-07-13T02:37:50;13.80;99.90
31765;DHT22;18338;53.240;8.798;2023-07-13T02:40:18;13.80;99.90
31765;DHT22;18338;53.240;8.798;2023-07-13T02:42:44;13.80;99.90
31765;DHT22;18338;53.240;8.798;2023-07-13T02:45:11;13.80;99.90
31765;DHT22;18338;53.240;8.798;2023-07-13T02:47:41;13.80;99.90
31765;DHT22;18338;53.240;8.798;2023-07-13T02:50:08;13.80;99.90
31765;DHT22;18338;53.240;8.798;2023-07-13T02:52:35;13.80;99.90
31765;DHT22;18338;53.240;8.798;2023-07-13T02:55:02;13.80;99.90
31765;DHT22;18338;53.240;8.798;2023-07-13T02:57:29;13.90;99.90
31765;DHT22;18338;53.240;8.798;2023-07-13T03:00:00;13.90;99.90
31765;DHT22;18338;53.240;8.798;2023-07-13T03:02:27;13.80;99.90
31765;DHT22;18338;53.240;8.798;2023-07-13T03:04:55;13.80;99.90
31765;DHT22;18338;53.240;8.798;2023-07-13T03:07:23;13.80;99.90
31765;DHT22;18338;53.240;8.798;2023-07-13T03:09:54;13.80;99.90
31765;DHT22;18338;53.240;8.798;2023-07-13T03:12:22;13.90;99.90
31765;DHT22;18338;53.240;8.798;2023-07-13T03:14:49;14.00;99.90
31765;DHT22;18338;53.240;8.798;2023-07-13T03:17:16;14.10;99.90
31765;DHT22;18338;53.240;8.798;2023-07-13T03:19:43;14.20;99.90
31765;DHT22;18338;53.240;8.798;2023-07-13T03:22:10;14.20;99.90
31765;DHT22;18338;53.240;8.798;2023-07-13T03:24:37;14.30;99.90
31765;DHT22;18338;53.240;8.798;2023-07-13T03:27:06;14.40;99.90
31765;DHT22;18338;53.240;8.798;2023-07-13T03:29:32;14.40;99.90
31765;DHT22;18338;53.240;8.798;2023-07-13T03:31:59;14.50;99.90
31765;DHT22;18338;53.240;8.798;2023-07-13T03:34:26;14.60;99.90
31765;DHT22;18338;53.240;8.798;2023-07-13T03:36:56;14.70;99.90
31765;DHT22;18338;53.240;8.798;2023-07-13T03:39:23;14.70;99.90
31765;DHT22;18338;53.240;8.798;2023-07-13T03:41:49;14.80;99.90
31765;DHT22;18338;53.240;8.798;2023-07-13T03:44:16;14.80;99.90
31765;DHT22;18338;53.240;8.798;2023-07-13T03:46:44;14.80;99.90
31765;DHT22;18338;53.240;8.798;2023-07-13T03:49:11;14.80;99.90
31765;DHT22;18338;53.240;8.798;2023-07-13T03:51:38;14.90;99.90
31765;DHT22;18338;53.240;8.798;2023-07-13T03:54:05;14.90;99.90
31765;DHT22;18338;53.240;8.798;2023-07-13T03:56:31;14.90;99.90
31765;DHT22;18338;53.240;8.798;2023-07-13T03:58:59;14.90;99.90
31765;DHT22;18338;53.240;8.798;2023-07-13T04:01:26;15.00;99.90
31765;DHT22;18338;53.240;8.798;2023-07-13T04:03:53;15.00;99.90
31765;DHT22;18338;53.240;8.798;2023-07-13T04:06:27;15.10;99.90
31765;DHT22;18338;53.240;8.798;2023-07-13T04:08:58;15.10;99.90
31765;DHT22;18338;53.240;8.798;2023-07-13T04:11:29;15.20;99.90
31765;DHT22;18338;53.240;8.798;2023-07-13T04:13:58;15.20;99.90
31765;DHT22;18338;53.240;8.798;2023-07-13T04:16:25;15.20;99.90
31765;DHT22;18338;53.240;8.798;2023-07-13T04:18:52;15.20;99.90
31765;DHT22;18338;53.240;8.798;2023-07-13T04:21:27;15.30;99.90
31765;DHT22;18338;53.240;8.798;2023-07-13T04:23:54;15.30;99.90
31765;DHT22;18338;53.240;8.798;2023-07-13T04:26:21;15.30;99.90
31765;DHT22;18338;53.240;8.798;2023-07-13T04:28:49;15.30;99.90
31765;DHT22;18338;53.240;8.798;2023-07-13T04:31:16;15.40;99.90
31765;DHT22;18338;53.240;8.798;2023-07-13T04:33:43;15.40;99.90
31765;DHT22;18338;53.240;8.798;2023-07-13T04:36:14;15.40;99.90
31765;DHT22;18338;53.240;8.798;2023-07-13T04:38:41;15.50;99.90
31765;DHT22;18338;53.240;8.798;2023-07-13T04:41:08;15.50;99.90
31765;DHT22;18338;53.240;8.798;2023-07-13T04:43:35;15.60;99.90
31765;DHT22;18338;53.240;8.798;2023-07-13T04:46:11;15.60;99.90
31765;DHT22;18338;53.240;8.798;2023-07-13T04:48:38;15.60;99.90
31765;DHT22;18338;53.240;8.798;2023-07-13T04:51:06;15.70;99.90
31765;DHT22;18338;53.240;8.798;2023-07-13T04:53:33;15.70;99.90
31765;DHT22;18338;53.240;8.798;2023-07-13T04:56:02;15.70;99.90
31765;DHT22;18338;53.240;8.798;2023-07-13T04:58:29;15.80;99.90
31765;DHT22;18338;53.240;8.798;2023-07-13T05:01:03;15.90;99.90
31765;DHT22;18338;53.240;8.798;2023-07-13T05:03:31;15.90;99.90
31765;DHT22;18338;53.240;8.798;2023-07-13T05:06:02;15.90;99.90
31765;DHT22;18338;53.240;8.798;2023-07-13T05:08:29;16.00;99.90
31765;DHT22;18338;53.240;8.798;2023-07-13T05:10:55;16.00;99.90
31765;DHT22;18338;53.240;8.798;2023-07-13T05:13:22;16.00;99.90
31765;DHT22;18338;53.240;8.798;2023-07-13T05:16:00;16.10;99.90
31765;DHT22;18338;53.240;8.798;2023-07-13T05:18:28;16.10;99.90
31765;DHT22;18338;53.240;8.798;2023-07-13T05:20:58;16.20;99.90
31765;DHT22;18338;53.240;8.798;2023-07-13T05:23:24;16.30;99.90
31765;DHT22;18338;53.240;8.798;2023-07-13T05:25:51;16.40;99.90
31765;DHT22;18338;53.240;8.798;2023-07-13T05:28:18;16.40;99.90
31765;DHT22;18338;53.240;8.798;2023-07-13T05:30:48;16.50;99.90
31765;DHT22;18338;53.240;8.798;2023-07-13T05:33:16;16.50;99.90
31765;DHT22;18338;53.240;8.798;2023-07-13T05:35:43;16.50;99.90
31765;DHT22;18338;53.240;8.798;2023-07-13T05:38:10;16.40;99.90
31765;DHT22;18338;53.240;8.798;2023-07-13T05:40:37;16.50;99.90
31765;DHT22;18338;53.240;8.798;2023-07-13T05:43:04;16.60;99.90
31765;DHT22;18338;53.240;8.798;2023-07-13T05:45:30;16.70;99.90
31765;DHT22;18338;53.240;8.798;2023-07-13T05:47:57;16.80;99.90
31765;DHT22;18338;53.240;8.798;2023-07-13T05:50:26;16.80;99.90
31765;DHT22;18338;53.240;8.798;2023-07-13T05:52:53;16.90;99.90
31765;DHT22;18338;53.240;8.798;2023-07-13T05:55:20;17.00;99.90
31765;DHT22;18338;53.240;8.798;2023-07-13T05:57:47;17.00;99.90
31765;DHT22;18338;53.240;8.798;2023-07-13T06:00:15;17.00;99.90
31765;DHT22;18338;53.240;8.798;2023-07-13T06:02:42;17.20;99.90
31765;DHT22;18338;53.240;8.798;2023-07-13T06:05:09;17.20;99.90
31765;DHT22;18338;53.240;8.798;2023-07-13T06:07:36;17.20;99.90
31765;DHT22;18338;53.240;8.798;2023-07-13T06:10:02;17.20;99.90
31765;DHT22;18338;53.240;8.798;2023-07-13T06:12:29;17.30;99.90
31765;DHT22;18338;53.240;8.798;2023-07-13T06:14:56;17.20;99.90
31765;DHT22;18338;53.240;8.798;2023-07-13T06:17:22;17.40;99.90
31765;DHT22;18338;53.240;8.798;2023-07-13T06:19:49;17.60;99.90
31765;DHT22;18338;53.240;8.798;2023-07-13T06:22:16;17.90;99.90
31765;DHT22;18338;53.240;8.798;2023-07-13T06:24:42;18.20;99.90
31765;DHT22;18338;53.240;8.798;2023-07-13T06:27:09;18.50;99.90
31765;DHT22;18338;53.240;8.798;2023-07-13T06:29:36;18.60;99.90
31765;DHT22;18338;53.240;8.798;2023-07-13T06:32:02;18.60;99.90
31765;DHT22;18338;53.240;8.798;2023-07-13T06:34:29;18.60;99.90
31765;DHT22;18338;53.240;8.798;2023-07-13T06:36:56;18.50;99.90
31765;DHT22;18338;53.240;8.798;2023-07-13T06:39:22;18.60;99.90
31765;DHT22;18338;53.240;8.798;2023-07-13T06:41:49;18.70;99.90
31765;DHT22;18338;53.240;8.798;2023-07-13T06:44:16;18.80;99.90
31765;DHT22;18338;53.240;8.798;2023-07-13T06:46:42;18.80;99.90
31765;DHT22;18338;53.240;8.798;2023-07-13T06:49:09;18.70;99.90
31765;DHT22;18338;53.240;8.798;2023-07-13T06:51:36;18.80;99.90
31765;DHT22;18338;53.240;8.798;2023-07-13T06:54:03;18.90;99.90
31765;DHT22;18338;53.240;8.798;2023-07-13T06:56:30;18.90;99.90
31765;DHT22;18338;53.240;8.798;2023-07-13T06:58:56;18.90;99.90
31765;DHT22;18338;53.240;8.798;2023-07-13T07:01:23;18.70;99.90
31765;DHT22;18338;53.240;8.798;2023-07-13T07:03:50;18.50;99.90
31765;DHT22;18338;53.240;8.798;2023-07-13T07:06:20;18.50;99.90
31765;DHT22;18338;53.240;8.798;2023-07-13T07:08:47;18.60;99.90
31765;DHT22;18338;53.240;8.798;2023-07-13T07:11:17;18.80;99.90
31765;DHT22;18338;53.240;8.798;2023-07-13T07:13:44;19.10;99.90
31765;DHT22;18338;53.240;8.798;2023-07-13T07:16:11;18.90;99.90
31765;DHT22;18338;53.240;8.798;2023-07-13T07:18:40;18.60;99.90
31765;DHT22;18338;53.240;8.798;2023-07-13T07:21:07;18.40;99.90
31765;DHT22;18338;53.240;8.798;2023-07-13T07:23:33;18.60;99.90
31765;DHT22;18338;53.240;8.798;2023-07-13T07:26:00;18.60;99.90
31765;DHT22;18338;53.240;8.798;2023-07-13T07:28:27;18.50;99.90
31765;DHT22;18338;53.240;8.798;2023-07-13T07:31:12;18.50;99.90
31765;DHT22;18338;53.240;8.798;2023-07-13T07:33:42;18.80;99.90
31765;DHT22;18338;53.240;8.798;2023-07-13T07:36:09;18.80;99.90
31765;DHT22;18338;53.240;8.798;2023-07-13T07:38:39;18.80;99.90
31765;DHT22;18338;53.240;8.798;2023-07-13T07:41:06;18.70;99.90
31765;DHT22;18338;53.240;8.798;2023-07-13T07:43:35;18.70;99.90
31765;DHT22;18338;53.240;8.798;2023-07-13T07:46:03;18.80;99.90
31765;DHT22;18338;53.240;8.798;2023-07-13T07:48:30;19.10;99.90
31765;DHT22;18338;53.240;8.798;2023-07-13T07:50:57;19.50;99.90
31765;DHT22;18338;53.240;8.798;2023-07-13T07:53:24;19.50;99.90
31765;DHT22;18338;53.240;8.798;2023-07-13T07:55:51;19.50;99.90
31765;DHT22;18338;53.240;8.798;2023-07-13T07:58:21;19.60;99.90
31765;DHT22;18338;53.240;8.798;2023-07-13T08:00:50;19.70;99.90
31765;DHT22;18338;53.240;8.798;2023-07-13T08:03:20;19.90;99.90
31765;DHT22;18338;53.240;8.798;2023-07-13T08:05:53;20.00;99.90
31765;DHT22;18338;53.240;8.798;2023-07-13T08:08:23;20.10;99.90
31765;DHT22;18338;53.240;8.798;2023-07-13T08:10:50;20.10;99.90
31765;DHT22;18338;53.240;8.798;2023-07-13T08:13:16;20.00;99.90
31765;DHT22;18338;53.240;8.798;2023-07-13T08:15:44;20.50;99.90
31765;DHT22;18338;53.240;8.798;2023-07-13T08:18:10;20.70;99.90
31765;DHT22;18338;53.240;8.798;2023-07-13T08:20:38;21.40;99.90
31765;DHT22;18338;53.240;8.798;2023-07-13T08:23:06;23.00;99.90
31765;DHT22;18338;53.240;8.798;2023-07-13T08:25:33;22.90;99.90
31765;DHT22;18338;53.240;8.798;2023-07-13T08:28:00;23.20;99.90
31765;DHT22;18338;53.240;8.798;2023-07-13T08:30:27;24.90;99.90
31765;DHT22;18338;53.240;8.798;2023-07-13T08:32:54;25.60;99.90
31765;DHT22;18338;53.240;8.798;2023-07-13T08:35:21;26.10;99.90
31765;DHT22;18338;53.240;8.798;2023-07-13T08:37:47;25.70;99.90
31765;DHT22;18338;53.240;8.798;2023-07-13T08:40:14;25.80;99.90
31765;DHT22;18338;53.240;8.798;2023-07-13T08:42:54;25.30;99.90
31765;DHT22;18338;53.240;8.798;2023-07-13T08:48:23;25.60;99.90
31765;DHT22;18338;53.240;8.798;2023-07-13T08:51:23;26.00;99.90
31765;DHT22;18338;53.240;8.798;2023-07-13T08:53:55;26.80;99.90
31765;DHT22;18338;53.240;8.798;2023-07-13T08:56:26;27.10;99.90
31765;DHT22;18338;53.240;8.798;2023-07-13T08:59:10;27.40;99.90
31765;DHT22;18338;53.240;8.798;2023-07-13T09:05:01;27.10;99.90
31765;DHT22;18338;53.240;8.798;2023-07-13T09:10:28;25.70;99.90
31765;DHT22;18338;53.240;8.798;2023-07-13T09:16:00;25.60;99.90
31765;DHT22;18338;53.240;8.798;2023-07-13T09:18:38;26.10;99.90
31765;DHT22;18338;53.240;8.798;2023-07-13T09:21:22;26.80;99.90
31765;DHT22;18338;53.240;8.798;2023-07-13T09:23:53;26.80;99.90
31765;DHT22;18338;53.240;8.798;2023-07-13T09:26:23;25.50;99.90
31765;DHT22;18338;53.240;8.798;2023-07-13T09:29:14;25.30;99.90
31765;DHT22;18338;53.240;8.798;2023-07-13T09:31:47;24.70;99.90
31765;DHT22;18338;53.240;8.798;2023-07-13T09:34:16;23.90;99.90
31765;DHT22;18338;53.240;8.798;2023-07-13T09:36:43;24.00;99.90
31765;DHT22;18338;53.240;8.798;2023-07-13T09:39:34;24.80;99.90
31765;DHT22;18338;53.240;8.798;2023-07-13T09:44:49;23.00;99.90
31765;DHT22;18338;53.240;8.798;2023-07-13T09:47:30;25.20;99.90
31765;DHT22;18338;53.240;8.798;2023-07-13T09:50:00;27.90;99.90
31765;DHT22;18338;53.240;8.798;2023-07-13T09:52:41;29.20;94.30
31765;DHT22;18338;53.240;8.798;2023-07-13T09:55:29;26.80;97.10
31765;DHT22;18338;53.240;8.798;2023-07-13T09:57:56;24.70;99.90
31765;DHT22;18338;53.240;8.798;2023-07-13T10:00:26;25.50;99.90
31765;DHT22;18338;53.240;8.798;2023-07-13T10:03:26;27.10;97.90
31765;DHT22;18338;53.240;8.798;2023-07-13T10:05:53;28.80;96.20
31765;DHT22;18338;53.240;8.798;2023-07-13T10:08:28;28.50;93.40
31765;DHT22;18338;53.240;8.798;2023-07-13T10:11:02;27.60;94.50
31765;DHT22;18338;53.240;8.798;2023-07-13T10:13:57;27.10;97.20
31765;DHT22;18338;53.240;8.798;2023-07-13T10:16:28;28.40;95.10
31765;DHT22;18338;53.240;8.798;2023-07-13T10:19:05;29.70;92.10
31765;DHT22;18338;53.240;8.798;2023-07-13T10:21:41;29.60;91.50
31765;DHT22;18338;53.240;8.798;2023-07-13T10:24:15;29.10;91.60
31765;DHT22;18338;53.240;8.798;2023-07-13T10:26:52;27.00;93.30
31765;DHT22;18338;53.240;8.798;2023-07-13T10:29:20;25.70;97.10
31765;DHT22;18338;53.240;8.798;2023-07-13T10:31:48;27.80;94.10
31765;DHT22;18338;53.240;8.798;2023-07-13T10:34:16;29.30;92.80
31765;DHT22;18338;53.240;8.798;2023-07-13T10:36:46;31.20;88.30
31765;DHT22;18338;53.240;8.798;2023-07-13T10:39:26;29.30;85.80
31765;DHT22;18338;53.240;8.798;2023-07-13T10:41:57;26.80;93.40
31765;DHT22;18338;53.240;8.798;2023-07-13T10:44:29;25.20;99.30
31765;DHT22;18338;53.240;8.798;2023-07-13T10:47:06;23.40;99.90
31765;DHT22;18338;53.240;8.798;2023-07-13T10:49:34;22.50;99.90
31765;DHT22;18338;53.240;8.798;2023-07-13T10:52:03;21.80;99.90
31765;DHT22;18338;53.240;8.798;2023-07-13T10:57:17;20.90;99.90
31765;DHT22;18338;53.240;8.798;2023-07-13T11:00:22;20.70;99.90
31765;DHT22;18338;53.240;8.798;2023-07-13T11:02:59;22.50;99.90
31765;DHT22;18338;53.240;8.798;2023-07-13T11:05:32;23.80;99.90
31765;DHT22;18338;53.240;8.798;2023-07-13T11:10:52;24.00;99.90
31765;DHT22;18338;53.240;8.798;2023-07-13T11:13:56;23.90;99.90
31765;DHT22;18338;53.240;8.798;2023-07-13T11:25:02;25.60;99.90
31765;DHT22;18338;53.240;8.798;2023-07-13T11:27:51;24.80;99.90
31765;DHT22;18338;53.240;8.798;2023-07-13T11:30:25;23.80;99.90
31765;DHT22;18338;53.240;8.798;2023-07-13T11:35:41;22.00;99.90
31765;DHT22;18338;53.240;8.798;2023-07-13T11:38:18;21.50;99.90
31765;DHT22;18338;53.240;8.798;2023-07-13T11:40:47;21.70;99.90
31765;DHT22;18338;53.240;8.798;2023-07-13T11:43:22;21.30;99.90
31765;DHT22;18338;53.240;8.798;2023-07-13T11:45:52;21.10;99.90
31765;DHT22;18338;53.240;8.798;2023-07-13T11:48:22;21.20;99.90
31765;DHT22;18338;53.240;8.798;2023-07-13T11:50:59;21.00;99.90
31765;DHT22;18338;53.240;8.798;2023-07-13T11:53:28;20.40;99.90
31765;DHT22;18338;53.240;8.798;2023-07-13T11:55:57;19.70;99.90
31765;DHT22;18338;53.240;8.798;2023-07-13T11:58:25;18.90;99.90
31765;DHT22;18338;53.240;8.798;2023-07-13T12:00:55;18.20;99.90
31765;DHT22;18338;53.240;8.798;2023-07-13T12:03:25;17.60;99.90
31765;DHT22;18338;53.240;8.798;2023-07-13T12:05:57;17.20;99.90
31765;DHT22;18338;53.240;8.798;2023-07-13T12:08:24;16.90;99.90
31765;DHT22;18338;53.240;8.798;2023-07-13T12:11:05;16.80;99.90
31765;DHT22;18338;53.240;8.798;2023-07-13T12:13:37;16.60;99.90
31765;DHT22;18338;53.240;8.798;2023-07-13T12:16:16;16.60;99.90
31765;DHT22;18338;53.240;8.798;2023-07-13T12:18:44;16.50;99.90
31765;DHT22;18338;53.240;8.798;2023-07-13T12:21:15;16.40;99.90
31765;DHT22;18338;53.240;8.798;2023-07-13T12:23:44;16.40;99.90
31765;DHT22;18338;53.240;8.798;2023-07-13T12:26:14;16.40;99.90
31765;DHT22;18338;53.240;8.798;2023-07-13T12:28:51;16.20;99.90
31765;DHT22;18338;53.240;8.798;2023-07-13T12:31:34;16.20;99.90
31765;DHT22;18338;53.240;8.798;2023-07-13T12:34:13;16.20;99.90
31765;DHT22;18338;53.240;8.798;2023-07-13T12:37:08;16.30;99.90
31765;DHT22;18338;53.240;8.798;2023-07-13T12:39:47;16.30;99.90
31765;DHT22;18338;53.240;8.798;2023-07-13T12:42:27;16.70;99.90
31765;DHT22;18338;53.240;8.798;2023-07-13T12:44:58;16.90;99.90
31765;DHT22;18338;53.240;8.798;2023-07-13T12:47:27;17.30;99.90
31765;DHT22;18338;53.240;8.798;2023-07-13T12:49:59;18.30;99.90
31765;DHT22;18338;53.240;8.798;2023-07-13T12:52:31;21.10;99.90
31765;DHT22;18338;53.240;8.798;2023-07-13T12:55:11;23.80;99.90
31765;DHT22;18338;53.240;8.798;2023-07-13T12:57:56;26.10;99.90
31765;DHT22;18338;53.240;8.798;2023-07-13T13:00:33;26.60;99.90
31765;DHT22;18338;53.240;8.798;2023-07-13T13:06:06;24.80;99.90
31765;DHT22;18338;53.240;8.798;2023-07-13T13:08:47;23.20;99.90
31765;DHT22;18338;53.240;8.798;2023-07-13T13:11:15;23.20;99.90
31765;DHT22;18338;53.240;8.798;2023-07-13T13:13:43;23.40;99.90
31765;DHT22;18338;53.240;8.798;2023-07-13T13:18:56;24.50;99.90
31765;DHT22;18338;53.240;8.798;2023-07-13T13:21:24;23.70;99.90
31765;DHT22;18338;53.240;8.798;2023-07-13T13:23:51;23.40;99.90
31765;DHT22;18338;53.240;8.798;2023-07-13T13:26:23;23.30;99.90
31765;DHT22;18338;53.240;8.798;2023-07-13T13:28:50;22.50;99.90
31765;DHT22;18338;53.240;8.798;2023-07-13T13:31:17;23.20;99.90
31765;DHT22;18338;53.240;8.798;2023-07-13T13:33:45;23.10;99.90
31765;DHT22;18338;53.240;8.798;2023-07-13T13:36:21;24.10;99.90
31765;DHT22;18338;53.240;8.798;2023-07-13T13:38:50;25.00;99.90
31765;DHT22;18338;53.240;8.798;2023-07-13T13:41:17;24.00;99.90
31765;DHT22;18338;53.240;8.798;2023-07-13T13:43:44;23.10;99.90
31765;DHT22;18338;53.240;8.798;2023-07-13T13:46:20;22.60;99.90
31765;DHT22;18338;53.240;8.798;2023-07-13T13:48:48;22.80;99.90
31765;DHT22;18338;53.240;8.798;2023-07-13T13:51:18;22.90;99.90
31765;DHT22;18338;53.240;8.798;2023-07-13T13:53:47;22.70;99.90
31765;DHT22;18338;53.240;8.798;2023-07-13T13:56:14;22.40;99.90
31765;DHT22;18338;53.240;8.798;2023-07-13T13:58:42;22.10;99.90
31765;DHT22;18338;53.240;8.798;2023-07-13T14:01:27;21.60;99.90
31765;DHT22;18338;53.240;8.798;2023-07-13T14:03:55;21.20;99.90
31765;DHT22;18338;53.240;8.798;2023-07-13T14:06:23;20.80;99.90
31765;DHT22;18338;53.240;8.798;2023-07-13T14:09:21;20.50;99.90
31765;DHT22;18338;53.240;8.798;2023-07-13T14:11:56;20.10;99.90
31765;DHT22;18338;53.240;8.798;2023-07-13T14:14:24;19.80;99.90
31765;DHT22;18338;53.240;8.798;2023-07-13T14:16:54;19.60;99.90
31765;DHT22;18338;53.240;8.798;2023-07-13T14:19:23;19.80;99.90
31765;DHT22;18338;53.240;8.798;2023-07-13T14:21:50;19.90;99.90
31765;DHT22;18338;53.240;8.798;2023-07-13T14:24:20;19.70;99.90
31765;DHT22;18338;53.240;8.798;2023-07-13T14:26:47;19.60;99.90
31765;DHT22;18338;53.240;8.798;2023-07-13T14:29:19;19.50;99.90
31765;DHT22;18338;53.240;8.798;2023-07-13T14:31:50;19.40;99.90
31765;DHT22;18338;53.240;8.798;2023-07-13T14:34:16;19.20;99.90
31765;DHT22;18338;53.240;8.798;2023-07-13T14:36:50;18.90;99.90
31765;DHT22;18338;53.240;8.798;2023-07-13T14:39:19;18.60;99.90
31765;DHT22;18338;53.240;8.798;2023-07-13T14:41:50;18.40;99.90
31765;DHT22;18338;53.240;8.798;2023-07-13T14:44:25;18.10;99.90
31765;DHT22;18338;53.240;8.798;2023-07-13T14:46:52;17.60;99.90
31765;DHT22;18338;53.240;8.798;2023-07-13T14:49:36;17.10;99.90
31765;DHT22;18338;53.240;8.798;2023-07-13T14:52:15;16.80;99.90
31765;DHT22;18338;53.240;8.798;2023-07-13T14:54:43;16.60;99.90
31765;DHT22;18338;53.240;8.798;2023-07-13T14:57:17;16.50;99.90
31765;DHT22;18338;53.240;8.798;2023-07-13T14:59:45;16.30;99.90
31765;DHT22;18338;53.240;8.798;2023-07-13T15:02:29;16.20;99.90
31765;DHT22;18338;53.240;8.798;2023-07-13T15:04:58;16.10;99.90
31765;DHT22;18338;53.240;8.798;2023-07-13T15:07:25;16.00;99.90
31765;DHT22;18338;53.240;8.798;2023-07-13T15:09:52;16.00;99.90
31765;DHT22;18338;53.240;8.798;2023-07-13T15:12:19;16.00;99.90
31765;DHT22;18338;53.240;8.798;2023-07-13T15:14:46;16.00;99.90
31765;DHT22;18338;53.240;8.798;2023-07-13T15:17:31;16.10;99.90
31765;DHT22;18338;53.240;8.798;2023-07-13T15:19:59;16.20;99.90
31765;DHT22;18338;53.240;8.798;2023-07-13T15:22:26;16.30;99.90
31765;DHT22;18338;53.240;8.798;2023-07-13T15:24:53;16.30;99.90
31765;DHT22;18338;53.240;8.798;2023-07-13T15:27:22;16.60;99.90
31765;DHT22;18338;53.240;8.798;2023-07-13T15:29:48;16.80;99.90
31765;DHT22;18338;53.240;8.798;2023-07-13T15:32:15;17.30;99.90
31765;DHT22;18338;53.240;8.798;2023-07-13T15:34:42;17.70;99.90
31765;DHT22;18338;53.240;8.798;2023-07-13T15:37:17;17.80;99.90
31765;DHT22;18338;53.240;8.798;2023-07-13T15:39:46;17.80;99.90
31765;DHT22;18338;53.240;8.798;2023-07-13T15:42:17;17.70;99.90
31765;DHT22;18338;53.240;8.798;2023-07-13T15:44:45;17.80;99.90
31765;DHT22;18338;53.240;8.798;2023-07-13T15:47:13;18.10;99.90
31765;DHT22;18338;53.240;8.798;2023-07-13T15:49:41;18.20;99.90
31765;DHT22;18338;53.240;8.798;2023-07-13T15:52:20;18.50;99.90
31765;DHT22;18338;53.240;8.798;2023-07-13T15:54:48;18.50;99.90
31765;DHT22;18338;53.240;8.798;2023-07-13T15:57:16;18.40;99.90
31765;DHT22;18338;53.240;8.798;2023-07-13T15:59:43;18.10;99.90
31765;DHT22;18338;53.240;8.798;2023-07-13T16:04:41;18.00;99.90
31765;DHT22;18338;53.240;8.798;2023-07-13T16:07:10;17.90;99.90
31765;DHT22;18338;53.240;8.798;2023-07-13T16:09:38;17.70;99.90
31765;DHT22;18338;53.240;8.798;2023-07-13T16:12:11;17.60;99.90
31765;DHT22;18338;53.240;8.798;2023-07-13T16:14:39;17.40;99.90
31765;DHT22;18338;53.240;8.798;2023-07-13T16:17:12;17.40;99.90
31765;DHT22;18338;53.240;8.798;2023-07-13T16:19:40;17.20;99.90
31765;DHT22;18338;53.240;8.798;2023-07-13T16:22:15;17.00;99.90
31765;DHT22;18338;53.240;8.798;2023-07-13T16:24:43;17.00;99.90
31765;DHT22;18338;53.240;8.798;2023-07-13T16:27:12;16.90;99.90
31765;DHT22;18338;53.240;8.798;2023-07-13T16:29:39;17.20;99.90